Wetterverlauf

Letzte Wetterlage 03.09.2014 03:51
Wetterdiagramm
Tabellarische Darstellung
Datum Temperatur Windchill Feuchte Luftdruck Windrichtung Windstärke Niederschlag
03.09.2014 04:01 13,3 °C 13,3 °C 99 % 1023,8 hPa 90 0.0 0,00 mm
03.09.2014 03:51 13,5 °C 13,5 °C 99 % 1023,9 hPa 270 0.0 0,00 mm
03.09.2014 03:41 14,0 °C 14,0 °C 99 % 1024,0 hPa 45 0.0 0,00 mm
03.09.2014 03:31 14,1 °C 14,1 °C 99 % 1023,9 hPa 45 0.0 0,00 mm
03.09.2014 03:21 14,1 °C 14,1 °C 99 % 1023,9 hPa 90 0.7 0,00 mm
03.09.2014 03:11 14,1 °C 14,1 °C 99 % 1023,9 hPa 45 0.7 0,00 mm
03.09.2014 03:01 14,0 °C 14,0 °C 98 % 1024,0 hPa 45 0.7 0,00 mm
03.09.2014 02:51 13,7 °C 13,7 °C 99 % 1024,0 hPa 90 0.3 0,00 mm
03.09.2014 02:41 13,5 °C 13,5 °C 98 % 1024,1 hPa 90 0.3 0,00 mm
03.09.2014 02:31 13,5 °C 13,5 °C 98 % 1024,1 hPa 90 0.0 0,00 mm
03.09.2014 02:21 13,4 °C 13,4 °C 98 % 1024,2 hPa 45 0.0 0,00 mm
03.09.2014 02:11 13,3 °C 13,3 °C 98 % 1024,2 hPa 270 0.0 0,00 mm
03.09.2014 02:01 13,4 °C 13,4 °C 98 % 1024,1 hPa 225 0.0 0,00 mm
03.09.2014 01:56 13,4 °C 13,4 °C 98 % 1024,2 hPa 225 0.0 0,00 mm
03.09.2014 01:51 13,5 °C 13,5 °C 98 % 1024,2 hPa 225 0.0 0,00 mm
03.09.2014 01:41 13,7 °C 13,7 °C 98 % 1024,0 hPa 180 0.0 0,00 mm
03.09.2014 01:31 14,0 °C 14,0 °C 97 % 1024,0 hPa 315 0.0 0,00 mm
03.09.2014 01:21 14,2 °C 14,2 °C 97 % 1024,1 hPa 45 0.7 0,00 mm
03.09.2014 01:11 14,1 °C 14,1 °C 96 % 1024,1 hPa 45 0.7 0,00 mm
03.09.2014 01:01 14,1 °C 14,1 °C 96 % 1024,1 hPa 45 0.0 0,00 mm
03.09.2014 00:46 14,2 °C 14,2 °C 96 % 1024,0 hPa 45 0.0 0,00 mm
03.09.2014 00:36 14,3 °C 14,3 °C 95 % 1024,1 hPa 45 0.0 0,00 mm
03.09.2014 00:26 14,4 °C 14,4 °C 95 % 1024,1 hPa 315 0.0 0,00 mm
03.09.2014 00:16 14,5 °C 14,5 °C 95 % 1024,1 hPa 225 0.0 0,00 mm
03.09.2014 00:06 14,7 °C 14,7 °C 94 % 1024,3 hPa 225 0.0 0,00 mm
Empfehlen Sie wetter.com
| Mehr
Neue Wetterwarnung

Neue Niederschlagsmeldung
Neue Meldung
Regen Liveticker
    sehr starker Regen/Gewitter
    starker Regen/Gewitter
    mäßiger bis starker Regen
    mäßiger Regen
    leichter bis mäßiger Regen
    kein Regen